sensor_id;sensor_type;location;lat;lon;timestamp;P1;durP1;ratioP1;P2;durP2;ratioP2
35909;SDS011;22004;49.120;-0.200;2023-04-24T00:00:39;6.05;;;2.00;;
35909;SDS011;22004;49.120;-0.200;2023-04-24T00:03:05;6.35;;;2.20;;
35909;SDS011;22004;49.120;-0.200;2023-04-24T00:05:31;8.45;;;2.15;;
35909;SDS011;22004;49.120;-0.200;2023-04-24T00:07:57;9.63;;;2.13;;
35909;SDS011;22004;49.120;-0.200;2023-04-24T00:10:23;12.38;;;1.90;;
35909;SDS011;22004;49.120;-0.200;2023-04-24T00:12:48;9.10;;;1.88;;
35909;SDS011;22004;49.120;-0.200;2023-04-24T00:15:13;11.13;;;2.25;;
35909;SDS011;22004;49.120;-0.200;2023-04-24T00:17:39;13.27;;;2.10;;
35909;SDS011;22004;49.120;-0.200;2023-04-24T00:20:04;7.72;;;2.05;;
35909;SDS011;22004;49.120;-0.200;2023-04-24T00:22:32;8.35;;;1.77;;
35909;SDS011;22004;49.120;-0.200;2023-04-24T00:24:57;10.68;;;2.35;;
35909;SDS011;22004;49.120;-0.200;2023-04-24T00:27:23;6.85;;;2.15;;
35909;SDS011;22004;49.120;-0.200;2023-04-24T00:29:48;7.20;;;2.55;;
35909;SDS011;22004;49.120;-0.200;2023-04-24T00:32:14;7.75;;;2.20;;
35909;SDS011;22004;49.120;-0.200;2023-04-24T00:34:40;6.05;;;1.65;;
35909;SDS011;22004;49.120;-0.200;2023-04-24T00:37:05;9.18;;;1.75;;
35909;SDS011;22004;49.120;-0.200;2023-04-24T00:39:31;7.68;;;1.90;;
35909;SDS011;22004;49.120;-0.200;2023-04-24T00:41:57;4.93;;;1.80;;
35909;SDS011;22004;49.120;-0.200;2023-04-24T00:44:22;9.10;;;2.17;;
35909;SDS011;22004;49.120;-0.200;2023-04-24T00:46:48;6.80;;;1.88;;
35909;SDS011;22004;49.120;-0.200;2023-04-24T00:49:22;7.45;;;2.03;;
35909;SDS011;22004;49.120;-0.200;2023-04-24T00:51:48;9.38;;;2.00;;
35909;SDS011;22004;49.120;-0.200;2023-04-24T00:54:14;8.00;;;2.08;;
35909;SDS011;22004;49.120;-0.200;2023-04-24T00:56:40;10.32;;;2.08;;
35909;SDS011;22004;49.120;-0.200;2023-04-24T00:59:07;7.95;;;2.03;;
35909;SDS011;22004;49.120;-0.200;2023-04-24T01:01:33;8.45;;;2.15;;
35909;SDS011;22004;49.120;-0.200;2023-04-24T01:03:58;9.32;;;2.03;;
35909;SDS011;22004;49.120;-0.200;2023-04-24T01:06:25;7.00;;;1.98;;
35909;SDS011;22004;49.120;-0.200;2023-04-24T01:08:52;6.03;;;2.22;;
35909;SDS011;22004;49.120;-0.200;2023-04-24T01:11:20;8.10;;;1.70;;
35909;SDS011;22004;49.120;-0.200;2023-04-24T01:13:47;5.97;;;1.50;;
35909;SDS011;22004;49.120;-0.200;2023-04-24T01:16:13;10.00;;;2.17;;
35909;SDS011;22004;49.120;-0.200;2023-04-24T01:18:39;9.25;;;2.20;;
35909;SDS011;22004;49.120;-0.200;2023-04-24T01:21:06;9.68;;;2.05;;
35909;SDS011;22004;49.120;-0.200;2023-04-24T01:23:33;8.68;;;2.10;;
35909;SDS011;22004;49.120;-0.200;2023-04-24T01:25:59;6.60;;;1.75;;
35909;SDS011;22004;49.120;-0.200;2023-04-24T01:28:25;8.82;;;1.77;;
35909;SDS011;22004;49.120;-0.200;2023-04-24T01:30:51;7.05;;;1.90;;
35909;SDS011;22004;49.120;-0.200;2023-04-24T01:33:17;6.90;;;1.80;;
35909;SDS011;22004;49.120;-0.200;2023-04-24T01:35:43;9.52;;;2.45;;
35909;SDS011;22004;49.120;-0.200;2023-04-24T01:38:08;9.07;;;1.98;;
35909;SDS011;22004;49.120;-0.200;2023-04-24T01:40:34;5.95;;;1.80;;
35909;SDS011;22004;49.120;-0.200;2023-04-24T01:42:59;9.55;;;1.90;;
35909;SDS011;22004;49.120;-0.200;2023-04-24T01:45:25;8.20;;;2.00;;
35909;SDS011;22004;49.120;-0.200;2023-04-24T01:47:51;8.57;;;1.88;;
35909;SDS011;22004;49.120;-0.200;2023-04-24T01:50:16;4.15;;;1.60;;
35909;SDS011;22004;49.120;-0.200;2023-04-24T01:52:42;10.63;;;2.45;;
35909;SDS011;22004;49.120;-0.200;2023-04-24T01:55:09;8.40;;;1.83;;
35909;SDS011;22004;49.120;-0.200;2023-04-24T01:57:35;5.82;;;2.10;;
35909;SDS011;22004;49.120;-0.200;2023-04-24T02:00:01;9.82;;;1.90;;
35909;SDS011;22004;49.120;-0.200;2023-04-24T02:02:29;7.07;;;2.10;;
35909;SDS011;22004;49.120;-0.200;2023-04-24T02:04:54;7.32;;;2.17;;
35909;SDS011;22004;49.120;-0.200;2023-04-24T02:07:20;7.40;;;2.13;;
35909;SDS011;22004;49.120;-0.200;2023-04-24T02:09:45;6.65;;;1.85;;
35909;SDS011;22004;49.120;-0.200;2023-04-24T02:12:11;7.53;;;1.67;;
35909;SDS011;22004;49.120;-0.200;2023-04-24T02:14:36;7.38;;;1.80;;
35909;SDS011;22004;49.120;-0.200;2023-04-24T02:17:01;4.78;;;1.80;;
35909;SDS011;22004;49.120;-0.200;2023-04-24T02:19:27;5.20;;;1.85;;
35909;SDS011;22004;49.120;-0.200;2023-04-24T02:21:52;6.85;;;2.15;;
35909;SDS011;22004;49.120;-0.200;2023-04-24T02:24:17;5.88;;;1.98;;
35909;SDS011;22004;49.120;-0.200;2023-04-24T02:26:43;5.72;;;2.05;;
35909;SDS011;22004;49.120;-0.200;2023-04-24T02:29:08;9.10;;;1.80;;
35909;SDS011;22004;49.120;-0.200;2023-04-24T02:31:33;6.72;;;2.10;;
35909;SDS011;22004;49.120;-0.200;2023-04-24T02:33:59;6.90;;;2.25;;
35909;SDS011;22004;49.120;-0.200;2023-04-24T02:36:24;11.75;;;2.30;;
35909;SDS011;22004;49.120;-0.200;2023-04-24T02:38:50;9.23;;;2.05;;
35909;SDS011;22004;49.120;-0.200;2023-04-24T02:41:15;5.78;;;2.28;;
35909;SDS011;22004;49.120;-0.200;2023-04-24T02:43:40;4.32;;;1.95;;
35909;SDS011;22004;49.120;-0.200;2023-04-24T02:46:06;5.88;;;2.10;;
35909;SDS011;22004;49.120;-0.200;2023-04-24T02:48:31;6.20;;;2.70;;
35909;SDS011;22004;49.120;-0.200;2023-04-24T02:50:57;6.40;;;2.15;;
35909;SDS011;22004;49.120;-0.200;2023-04-24T02:53:22;8.40;;;2.20;;
35909;SDS011;22004;49.120;-0.200;2023-04-24T02:55:48;9.55;;;2.78;;
35909;SDS011;22004;49.120;-0.200;2023-04-24T02:58:13;8.00;;;2.55;;
35909;SDS011;22004;49.120;-0.200;2023-04-24T03:00:39;7.53;;;2.35;;
35909;SDS011;22004;49.120;-0.200;2023-04-24T03:03:04;10.50;;;3.00;;
35909;SDS011;22004;49.120;-0.200;2023-04-24T03:05:30;11.02;;;2.97;;
35909;SDS011;22004;49.120;-0.200;2023-04-24T03:07:56;6.93;;;2.65;;
35909;SDS011;22004;49.120;-0.200;2023-04-24T03:10:21;7.43;;;2.20;;
35909;SDS011;22004;49.120;-0.200;2023-04-24T03:12:49;10.77;;;3.10;;
35909;SDS011;22004;49.120;-0.200;2023-04-24T03:15:15;9.88;;;2.75;;
35909;SDS011;22004;49.120;-0.200;2023-04-24T03:17:40;8.02;;;3.08;;
35909;SDS011;22004;49.120;-0.200;2023-04-24T03:20:06;8.25;;;3.10;;
35909;SDS011;22004;49.120;-0.200;2023-04-24T03:22:33;7.53;;;3.10;;
35909;SDS011;22004;49.120;-0.200;2023-04-24T03:24:58;8.38;;;2.88;;
35909;SDS011;22004;49.120;-0.200;2023-04-24T03:27:24;12.27;;;3.95;;
35909;SDS011;22004;49.120;-0.200;2023-04-24T03:29:49;8.85;;;3.10;;
35909;SDS011;22004;49.120;-0.200;2023-04-24T03:32:18;6.00;;;3.40;;
35909;SDS011;22004;49.120;-0.200;2023-04-24T03:34:44;7.60;;;2.88;;
35909;SDS011;22004;49.120;-0.200;2023-04-24T03:37:09;11.60;;;3.65;;
35909;SDS011;22004;49.120;-0.200;2023-04-24T03:39:35;9.30;;;3.63;;
35909;SDS011;22004;49.120;-0.200;2023-04-24T03:42:00;9.75;;;3.42;;
35909;SDS011;22004;49.120;-0.200;2023-04-24T03:44:25;8.07;;;3.90;;
35909;SDS011;22004;49.120;-0.200;2023-04-24T03:46:51;10.48;;;3.55;;
35909;SDS011;22004;49.120;-0.200;2023-04-24T03:49:16;11.05;;;3.53;;
35909;SDS011;22004;49.120;-0.200;2023-04-24T03:51:41;7.10;;;3.42;;
35909;SDS011;22004;49.120;-0.200;2023-04-24T03:54:07;8.65;;;3.67;;
35909;SDS011;22004;49.120;-0.200;2023-04-24T03:56:32;9.00;;;3.83;;
35909;SDS011;22004;49.120;-0.200;2023-04-24T03:58:57;10.85;;;4.05;;
35909;SDS011;22004;49.120;-0.200;2023-04-24T04:01:23;7.65;;;3.50;;
35909;SDS011;22004;49.120;-0.200;2023-04-24T04:03:49;12.57;;;4.30;;
35909;SDS011;22004;49.120;-0.200;2023-04-24T04:06:14;13.07;;;4.35;;
35909;SDS011;22004;49.120;-0.200;2023-04-24T04:08:39;9.15;;;3.53;;
35909;SDS011;22004;49.120;-0.200;2023-04-24T04:11:05;11.20;;;4.45;;
35909;SDS011;22004;49.120;-0.200;2023-04-24T04:13:30;10.73;;;4.32;;
35909;SDS011;22004;49.120;-0.200;2023-04-24T04:15:56;13.80;;;4.63;;
35909;SDS011;22004;49.120;-0.200;2023-04-24T04:18:21;12.05;;;4.15;;
35909;SDS011;22004;49.120;-0.200;2023-04-24T04:20:46;8.27;;;4.80;;
35909;SDS011;22004;49.120;-0.200;2023-04-24T04:23:12;12.73;;;4.60;;
35909;SDS011;22004;49.120;-0.200;2023-04-24T04:25:37;10.60;;;4.10;;
35909;SDS011;22004;49.120;-0.200;2023-04-24T04:28:02;10.65;;;4.60;;
35909;SDS011;22004;49.120;-0.200;2023-04-24T04:30:28;9.63;;;4.47;;
35909;SDS011;22004;49.120;-0.200;2023-04-24T04:32:57;12.13;;;4.13;;
35909;SDS011;22004;49.120;-0.200;2023-04-24T04:35:23;15.95;;;5.05;;
35909;SDS011;22004;49.120;-0.200;2023-04-24T04:37:48;9.15;;;4.65;;
35909;SDS011;22004;49.120;-0.200;2023-04-24T04:40:14;8.43;;;4.43;;
35909;SDS011;22004;49.120;-0.200;2023-04-24T04:42:39;9.50;;;4.80;;
35909;SDS011;22004;49.120;-0.200;2023-04-24T04:45:06;7.80;;;4.22;;
35909;SDS011;22004;49.120;-0.200;2023-04-24T04:47:33;10.95;;;4.68;;
35909;SDS011;22004;49.120;-0.200;2023-04-24T04:49:59;19.25;;;5.82;;
35909;SDS011;22004;49.120;-0.200;2023-04-24T04:52:25;13.65;;;4.75;;
35909;SDS011;22004;49.120;-0.200;2023-04-24T04:54:51;9.85;;;4.57;;
35909;SDS011;22004;49.120;-0.200;2023-04-24T04:57:16;12.93;;;4.45;;
35909;SDS011;22004;49.120;-0.200;2023-04-24T04:59:42;15.02;;;4.93;;
35909;SDS011;22004;49.120;-0.200;2023-04-24T05:02:07;18.15;;;5.18;;
35909;SDS011;22004;49.120;-0.200;2023-04-24T05:04:33;13.38;;;5.05;;
35909;SDS011;22004;49.120;-0.200;2023-04-24T05:06:58;16.00;;;5.30;;
35909;SDS011;22004;49.120;-0.200;2023-04-24T05:09:24;15.80;;;6.18;;
35909;SDS011;22004;49.120;-0.200;2023-04-24T05:11:52;17.60;;;6.15;;
35909;SDS011;22004;49.120;-0.200;2023-04-24T05:14:17;16.02;;;5.70;;
35909;SDS011;22004;49.120;-0.200;2023-04-24T05:16:43;16.92;;;5.47;;
35909;SDS011;22004;49.120;-0.200;2023-04-24T05:19:09;20.90;;;5.75;;
35909;SDS011;22004;49.120;-0.200;2023-04-24T05:21:35;16.85;;;6.30;;
35909;SDS011;22004;49.120;-0.200;2023-04-24T05:24:01;13.38;;;5.68;;
35909;SDS011;22004;49.120;-0.200;2023-04-24T05:26:26;14.88;;;6.05;;
35909;SDS011;22004;49.120;-0.200;2023-04-24T05:28:52;15.15;;;6.10;;
35909;SDS011;22004;49.120;-0.200;2023-04-24T05:31:17;13.88;;;5.45;;
35909;SDS011;22004;49.120;-0.200;2023-04-24T05:33:42;11.75;;;5.38;;
35909;SDS011;22004;49.120;-0.200;2023-04-24T05:36:08;11.88;;;5.68;;
35909;SDS011;22004;49.120;-0.200;2023-04-24T05:38:33;13.32;;;5.30;;
35909;SDS011;22004;49.120;-0.200;2023-04-24T05:40:58;15.20;;;5.88;;
35909;SDS011;22004;49.120;-0.200;2023-04-24T05:43:24;14.90;;;5.80;;
35909;SDS011;22004;49.120;-0.200;2023-04-24T05:45:50;15.93;;;6.25;;
35909;SDS011;22004;49.120;-0.200;2023-04-24T05:48:15;12.65;;;5.75;;
35909;SDS011;22004;49.120;-0.200;2023-04-24T05:50:40;15.15;;;6.30;;
35909;SDS011;22004;49.120;-0.200;2023-04-24T05:53:06;12.95;;;5.25;;
35909;SDS011;22004;49.120;-0.200;2023-04-24T05:55:32;18.70;;;6.20;;
35909;SDS011;22004;49.120;-0.200;2023-04-24T05:57:57;13.57;;;5.50;;
35909;SDS011;22004;49.120;-0.200;2023-04-24T06:00:23;13.25;;;5.93;;
35909;SDS011;22004;49.120;-0.200;2023-04-24T06:02:49;14.35;;;5.95;;
35909;SDS011;22004;49.120;-0.200;2023-04-24T06:05:14;22.05;;;6.47;;
35909;SDS011;22004;49.120;-0.200;2023-04-24T06:07:40;12.40;;;5.55;;
35909;SDS011;22004;49.120;-0.200;2023-04-24T06:10:05;16.48;;;5.93;;
35909;SDS011;22004;49.120;-0.200;2023-04-24T06:12:31;14.18;;;6.40;;
35909;SDS011;22004;49.120;-0.200;2023-04-24T06:14:57;15.50;;;6.43;;
35909;SDS011;22004;49.120;-0.200;2023-04-24T06:17:22;17.15;;;5.97;;
35909;SDS011;22004;49.120;-0.200;2023-04-24T06:19:47;12.48;;;5.97;;
35909;SDS011;22004;49.120;-0.200;2023-04-24T06:22:13;12.65;;;5.72;;
35909;SDS011;22004;49.120;-0.200;2023-04-24T06:24:41;12.35;;;5.70;;
35909;SDS011;22004;49.120;-0.200;2023-04-24T06:27:06;13.80;;;5.57;;
35909;SDS011;22004;49.120;-0.200;2023-04-24T06:29:33;12.82;;;5.75;;
35909;SDS011;22004;49.120;-0.200;2023-04-24T06:31:58;12.43;;;5.30;;
35909;SDS011;22004;49.120;-0.200;2023-04-24T06:34:23;12.18;;;6.03;;
35909;SDS011;22004;49.120;-0.200;2023-04-24T06:36:49;23.98;;;6.60;;
35909;SDS011;22004;49.120;-0.200;2023-04-24T06:39:14;13.23;;;6.38;;
35909;SDS011;22004;49.120;-0.200;2023-04-24T06:41:40;22.13;;;7.40;;
35909;SDS011;22004;49.120;-0.200;2023-04-24T06:44:06;13.15;;;6.30;;
35909;SDS011;22004;49.120;-0.200;2023-04-24T06:46:31;14.15;;;5.85;;
35909;SDS011;22004;49.120;-0.200;2023-04-24T06:48:56;15.35;;;5.97;;
35909;SDS011;22004;49.120;-0.200;2023-04-24T06:51:22;12.80;;;6.15;;
35909;SDS011;22004;49.120;-0.200;2023-04-24T06:53:49;15.20;;;5.50;;
35909;SDS011;22004;49.120;-0.200;2023-04-24T06:56:15;15.73;;;5.45;;
35909;SDS011;22004;49.120;-0.200;2023-04-24T06:58:40;11.40;;;5.80;;
35909;SDS011;22004;49.120;-0.200;2023-04-24T07:01:05;11.35;;;5.25;;
35909;SDS011;22004;49.120;-0.200;2023-04-24T07:03:31;10.98;;;6.20;;
35909;SDS011;22004;49.120;-0.200;2023-04-24T07:05:56;25.33;;;7.38;;
35909;SDS011;22004;49.120;-0.200;2023-04-24T07:08:22;15.25;;;6.10;;
35909;SDS011;22004;49.120;-0.200;2023-04-24T07:10:49;17.42;;;6.88;;
35909;SDS011;22004;49.120;-0.200;2023-04-24T07:13:15;12.73;;;5.93;;
35909;SDS011;22004;49.120;-0.200;2023-04-24T07:15:41;13.70;;;6.32;;
35909;SDS011;22004;49.120;-0.200;2023-04-24T07:18:06;14.32;;;6.20;;
35909;SDS011;22004;49.120;-0.200;2023-04-24T07:20:32;10.88;;;6.00;;
35909;SDS011;22004;49.120;-0.200;2023-04-24T07:22:58;11.85;;;5.57;;
35909;SDS011;22004;49.120;-0.200;2023-04-24T07:25:23;11.50;;;6.03;;
35909;SDS011;22004;49.120;-0.200;2023-04-24T07:27:48;16.45;;;6.57;;
35909;SDS011;22004;49.120;-0.200;2023-04-24T07:30:14;16.23;;;6.55;;
35909;SDS011;22004;49.120;-0.200;2023-04-24T07:32:40;13.50;;;5.53;;
35909;SDS011;22004;49.120;-0.200;2023-04-24T07:35:05;11.98;;;5.93;;
35909;SDS011;22004;49.120;-0.200;2023-04-24T07:37:31;15.50;;;6.65;;
35909;SDS011;22004;49.120;-0.200;2023-04-24T07:39:56;13.60;;;6.35;;
35909;SDS011;22004;49.120;-0.200;2023-04-24T07:42:22;18.40;;;5.93;;
35909;SDS011;22004;49.120;-0.200;2023-04-24T07:44:47;11.82;;;5.68;;
35909;SDS011;22004;49.120;-0.200;2023-04-24T07:47:13;19.95;;;5.90;;
35909;SDS011;22004;49.120;-0.200;2023-04-24T07:49:41;13.38;;;6.13;;
35909;SDS011;22004;49.120;-0.200;2023-04-24T07:52:07;11.93;;;5.60;;
35909;SDS011;22004;49.120;-0.200;2023-04-24T07:54:32;16.45;;;6.03;;
35909;SDS011;22004;49.120;-0.200;2023-04-24T07:56:57;9.38;;;5.25;;
35909;SDS011;22004;49.120;-0.200;2023-04-24T07:59:23;16.30;;;5.93;;
35909;SDS011;22004;49.120;-0.200;2023-04-24T08:01:48;14.95;;;5.30;;
35909;SDS011;22004;49.120;-0.200;2023-04-24T08:04:14;14.98;;;6.43;;
35909;SDS011;22004;49.120;-0.200;2023-04-24T08:06:39;10.73;;;4.97;;
35909;SDS011;22004;49.120;-0.200;2023-04-24T08:09:04;12.45;;;5.07;;
35909;SDS011;22004;49.120;-0.200;2023-04-24T08:11:30;13.68;;;6.22;;
35909;SDS011;22004;49.120;-0.200;2023-04-24T08:13:55;10.82;;;4.97;;
35909;SDS011;22004;49.120;-0.200;2023-04-24T08:16:21;11.63;;;4.55;;
35909;SDS011;22004;49.120;-0.200;2023-04-24T08:18:46;9.20;;;4.68;;
35909;SDS011;22004;49.120;-0.200;2023-04-24T08:21:12;15.25;;;5.90;;
35909;SDS011;22004;49.120;-0.200;2023-04-24T08:23:41;17.63;;;4.93;;
35909;SDS011;22004;49.120;-0.200;2023-04-24T08:26:07;12.98;;;5.38;;
35909;SDS011;22004;49.120;-0.200;2023-04-24T08:28:32;14.18;;;4.97;;
35909;SDS011;22004;49.120;-0.200;2023-04-24T08:30:58;12.82;;;5.13;;
35909;SDS011;22004;49.120;-0.200;2023-04-24T08:33:23;12.57;;;4.95;;
35909;SDS011;22004;49.120;-0.200;2023-04-24T08:35:49;9.20;;;4.95;;
35909;SDS011;22004;49.120;-0.200;2023-04-24T08:38:15;9.73;;;4.75;;
35909;SDS011;22004;49.120;-0.200;2023-04-24T08:40:41;8.95;;;4.30;;
35909;SDS011;22004;49.120;-0.200;2023-04-24T08:43:06;10.98;;;4.63;;
35909;SDS011;22004;49.120;-0.200;2023-04-24T08:45:32;13.52;;;4.35;;
35909;SDS011;22004;49.120;-0.200;2023-04-24T08:47:58;10.70;;;4.53;;
35909;SDS011;22004;49.120;-0.200;2023-04-24T08:50:24;9.55;;;4.88;;
35909;SDS011;22004;49.120;-0.200;2023-04-24T08:52:50;14.90;;;6.00;;
35909;SDS011;22004;49.120;-0.200;2023-04-24T08:55:18;12.13;;;5.18;;
35909;SDS011;22004;49.120;-0.200;2023-04-24T08:57:45;9.45;;;4.75;;
35909;SDS011;22004;49.120;-0.200;2023-04-24T09:00:16;10.45;;;4.65;;
35909;SDS011;22004;49.120;-0.200;2023-04-24T09:02:43;13.02;;;5.00;;
35909;SDS011;22004;49.120;-0.200;2023-04-24T09:05:09;10.93;;;4.68;;
35909;SDS011;22004;49.120;-0.200;2023-04-24T09:07:35;12.23;;;5.07;;
35909;SDS011;22004;49.120;-0.200;2023-04-24T09:10:04;14.77;;;4.90;;
35909;SDS011;22004;49.120;-0.200;2023-04-24T09:12:31;13.10;;;4.93;;
35909;SDS011;22004;49.120;-0.200;2023-04-24T09:14:57;13.60;;;5.00;;
35909;SDS011;22004;49.120;-0.200;2023-04-24T09:17:24;7.85;;;4.47;;
35909;SDS011;22004;49.120;-0.200;2023-04-24T09:19:51;13.82;;;4.72;;
35909;SDS011;22004;49.120;-0.200;2023-04-24T09:22:17;9.93;;;4.13;;
35909;SDS011;22004;49.120;-0.200;2023-04-24T09:24:42;11.82;;;3.95;;
35909;SDS011;22004;49.120;-0.200;2023-04-24T09:27:07;11.45;;;5.00;;
35909;SDS011;22004;49.120;-0.200;2023-04-24T09:29:36;8.70;;;4.38;;
35909;SDS011;22004;49.120;-0.200;2023-04-24T09:32:17;10.98;;;4.75;;
35909;SDS011;22004;49.120;-0.200;2023-04-24T09:34:44;9.07;;;4.78;;
35909;SDS011;22004;49.120;-0.200;2023-04-24T09:37:14;6.45;;;4.00;;
35909;SDS011;22004;49.120;-0.200;2023-04-24T09:42:38;7.82;;;3.70;;
35909;SDS011;22004;49.120;-0.200;2023-04-24T09:45:08;8.65;;;3.90;;
35909;SDS011;22004;49.120;-0.200;2023-04-24T09:47:38;8.95;;;4.15;;
35909;SDS011;22004;49.120;-0.200;2023-04-24T09:50:14;8.73;;;3.95;;
35909;SDS011;22004;49.120;-0.200;2023-04-24T09:52:44;8.20;;;4.05;;
35909;SDS011;22004;49.120;-0.200;2023-04-24T09:55:22;9.77;;;4.57;;
35909;SDS011;22004;49.120;-0.200;2023-04-24T09:57:51;8.95;;;4.18;;
35909;SDS011;22004;49.120;-0.200;2023-04-24T10:00:22;8.27;;;3.95;;
35909;SDS011;22004;49.120;-0.200;2023-04-24T10:02:57;7.88;;;3.83;;
35909;SDS011;22004;49.120;-0.200;2023-04-24T10:05:34;9.73;;;4.20;;
35909;SDS011;22004;49.120;-0.200;2023-04-24T10:08:04;7.32;;;3.95;;
35909;SDS011;22004;49.120;-0.200;2023-04-24T10:10:32;6.72;;;3.92;;
35909;SDS011;22004;49.120;-0.200;2023-04-24T10:12:59;8.93;;;3.75;;
35909;SDS011;22004;49.120;-0.200;2023-04-24T10:15:24;5.68;;;3.72;;
35909;SDS011;22004;49.120;-0.200;2023-04-24T10:17:51;6.68;;;3.35;;
35909;SDS011;22004;49.120;-0.200;2023-04-24T10:20:21;7.13;;;4.00;;
35909;SDS011;22004;49.120;-0.200;2023-04-24T10:22:48;7.07;;;3.72;;
35909;SDS011;22004;49.120;-0.200;2023-04-24T10:25:19;9.05;;;3.60;;
35909;SDS011;22004;49.120;-0.200;2023-04-24T10:27:45;4.72;;;3.58;;
35909;SDS011;22004;49.120;-0.200;2023-04-24T10:30:11;9.57;;;3.85;;
35909;SDS011;22004;49.120;-0.200;2023-04-24T10:32:37;8.15;;;3.88;;
35909;SDS011;22004;49.120;-0.200;2023-04-24T10:35:03;7.20;;;4.03;;
35909;SDS011;22004;49.120;-0.200;2023-04-24T10:37:29;9.30;;;4.82;;
35909;SDS011;22004;49.120;-0.200;2023-04-24T10:40:02;5.90;;;3.60;;
35909;SDS011;22004;49.120;-0.200;2023-04-24T10:42:27;9.27;;;3.90;;
35909;SDS011;22004;49.120;-0.200;2023-04-24T10:44:53;6.72;;;4.07;;
35909;SDS011;22004;49.120;-0.200;2023-04-24T10:47:19;7.38;;;4.03;;
35909;SDS011;22004;49.120;-0.200;2023-04-24T10:49:44;8.48;;;3.92;;
35909;SDS011;22004;49.120;-0.200;2023-04-24T10:52:10;6.55;;;4.25;;
35909;SDS011;22004;49.120;-0.200;2023-04-24T10:59:47;5.82;;;3.38;;
35909;SDS011;22004;49.120;-0.200;2023-04-24T11:02:16;8.93;;;4.00;;
35909;SDS011;22004;49.120;-0.200;2023-04-24T11:04:43;7.53;;;3.65;;
35909;SDS011;22004;49.120;-0.200;2023-04-24T11:07:10;6.32;;;3.53;;
35909;SDS011;22004;49.120;-0.200;2023-04-24T11:09:36;10.27;;;3.92;;
35909;SDS011;22004;49.120;-0.200;2023-04-24T11:12:05;10.50;;;3.83;;
35909;SDS011;22004;49.120;-0.200;2023-04-24T11:17:42;10.25;;;3.95;;
35909;SDS011;22004;49.120;-0.200;2023-04-24T11:20:08;11.32;;;5.20;;
35909;SDS011;22004;49.120;-0.200;2023-04-24T11:22:38;8.60;;;4.03;;
35909;SDS011;22004;49.120;-0.200;2023-04-24T11:25:07;7.47;;;3.38;;
35909;SDS011;22004;49.120;-0.200;2023-04-24T11:27:40;7.25;;;3.42;;
35909;SDS011;22004;49.120;-0.200;2023-04-24T11:30:07;8.27;;;3.28;;
35909;SDS011;22004;49.120;-0.200;2023-04-24T11:37:33;5.35;;;3.65;;
35909;SDS011;22004;49.120;-0.200;2023-04-24T11:40:01;3.35;;;2.88;;
35909;SDS011;22004;49.120;-0.200;2023-04-24T11:42:27;5.65;;;3.10;;
35909;SDS011;22004;49.120;-0.200;2023-04-24T11:44:53;6.88;;;3.45;;
35909;SDS011;22004;49.120;-0.200;2023-04-24T11:47:26;8.20;;;3.60;;
35909;SDS011;22004;49.120;-0.200;2023-04-24T11:49:56;7.95;;;3.30;;
35909;SDS011;22004;49.120;-0.200;2023-04-24T11:52:21;7.70;;;3.42;;
35909;SDS011;22004;49.120;-0.200;2023-04-24T11:54:47;7.28;;;3.10;;
35909;SDS011;22004;49.120;-0.200;2023-04-24T11:57:14;3.55;;;2.35;;
35909;SDS011;22004;49.120;-0.200;2023-04-24T11:59:40;4.07;;;2.92;;
35909;SDS011;22004;49.120;-0.200;2023-04-24T12:02:05;5.82;;;3.22;;
35909;SDS011;22004;49.120;-0.200;2023-04-24T12:04:40;3.90;;;2.65;;
35909;SDS011;22004;49.120;-0.200;2023-04-24T12:07:06;5.88;;;2.63;;
35909;SDS011;22004;49.120;-0.200;2023-04-24T12:09:42;4.82;;;2.60;;
35909;SDS011;22004;49.120;-0.200;2023-04-24T12:12:10;5.22;;;2.67;;
35909;SDS011;22004;49.120;-0.200;2023-04-24T12:17:32;5.00;;;3.00;;
35909;SDS011;22004;49.120;-0.200;2023-04-24T12:19:59;7.20;;;2.65;;
35909;SDS011;22004;49.120;-0.200;2023-04-24T12:22:27;6.13;;;3.10;;
35909;SDS011;22004;49.120;-0.200;2023-04-24T12:25:03;7.30;;;3.35;;
35909;SDS011;22004;49.120;-0.200;2023-04-24T12:27:33;5.05;;;2.75;;
35909;SDS011;22004;49.120;-0.200;2023-04-24T12:29:59;6.75;;;3.35;;
35909;SDS011;22004;49.120;-0.200;2023-04-24T12:32:25;5.13;;;2.92;;
35909;SDS011;22004;49.120;-0.200;2023-04-24T12:34:51;8.40;;;3.50;;
35909;SDS011;22004;49.120;-0.200;2023-04-24T12:37:17;5.13;;;2.75;;
35909;SDS011;22004;49.120;-0.200;2023-04-24T12:42:27;5.90;;;3.10;;
35909;SDS011;22004;49.120;-0.200;2023-04-24T12:45:01;5.97;;;2.85;;
35909;SDS011;22004;49.120;-0.200;2023-04-24T12:47:30;7.32;;;3.20;;
35909;SDS011;22004;49.120;-0.200;2023-04-24T12:49:56;5.00;;;3.00;;
35909;SDS011;22004;49.120;-0.200;2023-04-24T12:52:22;6.15;;;2.85;;
35909;SDS011;22004;49.120;-0.200;2023-04-24T12:54:49;5.35;;;2.88;;
35909;SDS011;22004;49.120;-0.200;2023-04-24T12:57:15;5.93;;;3.00;;
35909;SDS011;22004;49.120;-0.200;2023-04-24T12:59:41;4.07;;;2.90;;
35909;SDS011;22004;49.120;-0.200;2023-04-24T13:02:06;4.45;;;3.40;;
35909;SDS011;22004;49.120;-0.200;2023-04-24T13:04:32;4.25;;;2.85;;
35909;SDS011;22004;49.120;-0.200;2023-04-24T13:06:57;5.55;;;2.95;;
35909;SDS011;22004;49.120;-0.200;2023-04-24T13:09:23;12.15;;;4.03;;
35909;SDS011;22004;49.120;-0.200;2023-04-24T13:11:48;9.80;;;3.50;;
35909;SDS011;22004;49.120;-0.200;2023-04-24T13:14:15;7.40;;;2.97;;
35909;SDS011;22004;49.120;-0.200;2023-04-24T13:16:40;5.60;;;2.30;;
35909;SDS011;22004;49.120;-0.200;2023-04-24T13:19:06;4.97;;;2.75;;
35909;SDS011;22004;49.120;-0.200;2023-04-24T13:21:31;3.63;;;2.28;;
35909;SDS011;22004;49.120;-0.200;2023-04-24T13:23:56;3.42;;;2.28;;
35909;SDS011;22004;49.120;-0.200;2023-04-24T13:26:22;4.03;;;2.60;;
35909;SDS011;22004;49.120;-0.200;2023-04-24T13:28:47;4.82;;;2.67;;
35909;SDS011;22004;49.120;-0.200;2023-04-24T13:31:13;5.50;;;3.15;;
35909;SDS011;22004;49.120;-0.200;2023-04-24T13:33:38;4.45;;;2.50;;
35909;SDS011;22004;49.120;-0.200;2023-04-24T13:36:04;3.72;;;2.53;;
35909;SDS011;22004;49.120;-0.200;2023-04-24T13:38:29;5.22;;;2.35;;
35909;SDS011;22004;49.120;-0.200;2023-04-24T13:40:54;4.15;;;2.33;;
35909;SDS011;22004;49.120;-0.200;2023-04-24T13:43:20;4.28;;;2.20;;
35909;SDS011;22004;49.120;-0.200;2023-04-24T13:45:45;4.80;;;2.50;;
35909;SDS011;22004;49.120;-0.200;2023-04-24T13:48:10;5.65;;;2.10;;
35909;SDS011;22004;49.120;-0.200;2023-04-24T13:50:36;5.68;;;2.30;;
35909;SDS011;22004;49.120;-0.200;2023-04-24T13:53:02;6.40;;;2.58;;
35909;SDS011;22004;49.120;-0.200;2023-04-24T13:55:27;4.00;;;2.35;;
35909;SDS011;22004;49.120;-0.200;2023-04-24T13:57:53;3.58;;;2.50;;
35909;SDS011;22004;49.120;-0.200;2023-04-24T14:00:20;6.90;;;2.95;;
35909;SDS011;22004;49.120;-0.200;2023-04-24T14:02:46;4.28;;;2.40;;
35909;SDS011;22004;49.120;-0.200;2023-04-24T14:05:12;8.77;;;2.72;;
35909;SDS011;22004;49.120;-0.200;2023-04-24T14:07:40;3.80;;;2.50;;
35909;SDS011;22004;49.120;-0.200;2023-04-24T14:10:05;4.20;;;2.38;;
35909;SDS011;22004;49.120;-0.200;2023-04-24T14:12:31;6.53;;;2.20;;
35909;SDS011;22004;49.120;-0.200;2023-04-24T14:14:57;6.75;;;2.80;;
35909;SDS011;22004;49.120;-0.200;2023-04-24T14:17:22;5.90;;;2.30;;
35909;SDS011;22004;49.120;-0.200;2023-04-24T14:19:47;5.68;;;2.75;;
35909;SDS011;22004;49.120;-0.200;2023-04-24T14:22:13;6.93;;;2.75;;
35909;SDS011;22004;49.120;-0.200;2023-04-24T14:24:38;5.63;;;2.70;;
35909;SDS011;22004;49.120;-0.200;2023-04-24T14:27:03;4.95;;;2.65;;
35909;SDS011;22004;49.120;-0.200;2023-04-24T14:29:29;3.88;;;2.50;;
35909;SDS011;22004;49.120;-0.200;2023-04-24T14:31:55;5.97;;;2.83;;
35909;SDS011;22004;49.120;-0.200;2023-04-24T14:34:20;4.82;;;2.70;;
35909;SDS011;22004;49.120;-0.200;2023-04-24T14:36:45;4.13;;;2.42;;
35909;SDS011;22004;49.120;-0.200;2023-04-24T14:39:11;3.42;;;2.50;;
35909;SDS011;22004;49.120;-0.200;2023-04-24T14:41:36;6.63;;;2.90;;
35909;SDS011;22004;49.120;-0.200;2023-04-24T14:44:02;4.85;;;2.50;;